sensor_id;sensor_type;location;lat;lon;timestamp;P1;durP1;ratioP1;P2;durP2;ratioP2
8596;SDS011;4336;49.310;8.646;2024-02-21T00:01:01;19.57;;;9.30;;
8596;SDS011;4336;49.310;8.646;2024-02-21T00:03:27;21.13;;;9.07;;
8596;SDS011;4336;49.310;8.646;2024-02-21T00:05:53;18.77;;;9.30;;
8596;SDS011;4336;49.310;8.646;2024-02-21T00:08:19;24.83;;;9.63;;
8596;SDS011;4336;49.310;8.646;2024-02-21T00:10:45;21.67;;;9.27;;
8596;SDS011;4336;49.310;8.646;2024-02-21T00:13:12;22.57;;;8.80;;
8596;SDS011;4336;49.310;8.646;2024-02-21T00:15:38;24.70;;;9.17;;
8596;SDS011;4336;49.310;8.646;2024-02-21T00:18:05;19.67;;;8.97;;
8596;SDS011;4336;49.310;8.646;2024-02-21T00:20:31;19.23;;;8.93;;
8596;SDS011;4336;49.310;8.646;2024-02-21T00:22:57;22.50;;;8.07;;
8596;SDS011;4336;49.310;8.646;2024-02-21T00:25:23;16.83;;;8.23;;
8596;SDS011;4336;49.310;8.646;2024-02-21T00:27:49;18.23;;;8.83;;
8596;SDS011;4336;49.310;8.646;2024-02-21T00:30:15;19.87;;;8.10;;
8596;SDS011;4336;49.310;8.646;2024-02-21T00:32:41;19.60;;;10.00;;
8596;SDS011;4336;49.310;8.646;2024-02-21T00:35:08;23.67;;;12.10;;
8596;SDS011;4336;49.310;8.646;2024-02-21T00:37:34;20.27;;;9.47;;
8596;SDS011;4336;49.310;8.646;2024-02-21T00:40:00;21.70;;;8.70;;
8596;SDS011;4336;49.310;8.646;2024-02-21T00:42:26;17.90;;;8.70;;
8596;SDS011;4336;49.310;8.646;2024-02-21T00:44:52;18.50;;;8.30;;
8596;SDS011;4336;49.310;8.646;2024-02-21T00:47:18;19.40;;;8.70;;
8596;SDS011;4336;49.310;8.646;2024-02-21T00:49:44;18.97;;;8.90;;
8596;SDS011;4336;49.310;8.646;2024-02-21T00:52:10;17.93;;;8.83;;
8596;SDS011;4336;49.310;8.646;2024-02-21T00:54:36;19.93;;;8.50;;
8596;SDS011;4336;49.310;8.646;2024-02-21T00:57:03;19.80;;;8.73;;
8596;SDS011;4336;49.310;8.646;2024-02-21T00:59:29;19.57;;;8.60;;
8596;SDS011;4336;49.310;8.646;2024-02-21T01:01:55;17.83;;;8.60;;
8596;SDS011;4336;49.310;8.646;2024-02-21T01:04:21;16.57;;;8.47;;
8596;SDS011;4336;49.310;8.646;2024-02-21T01:06:49;23.00;;;7.67;;
8596;SDS011;4336;49.310;8.646;2024-02-21T01:09:15;22.60;;;8.93;;
8596;SDS011;4336;49.310;8.646;2024-02-21T01:11:41;22.80;;;8.37;;
8596;SDS011;4336;49.310;8.646;2024-02-21T01:14:08;19.83;;;7.93;;
8596;SDS011;4336;49.310;8.646;2024-02-21T01:16:34;20.97;;;7.93;;
8596;SDS011;4336;49.310;8.646;2024-02-21T01:19:00;18.93;;;8.13;;
8596;SDS011;4336;49.310;8.646;2024-02-21T01:21:26;21.70;;;9.00;;
8596;SDS011;4336;49.310;8.646;2024-02-21T01:23:52;16.33;;;8.03;;
8596;SDS011;4336;49.310;8.646;2024-02-21T01:26:18;21.07;;;8.83;;
8596;SDS011;4336;49.310;8.646;2024-02-21T01:28:44;19.90;;;8.60;;
8596;SDS011;4336;49.310;8.646;2024-02-21T01:31:11;22.30;;;8.40;;
8596;SDS011;4336;49.310;8.646;2024-02-21T01:33:38;21.93;;;8.50;;
8596;SDS011;4336;49.310;8.646;2024-02-21T01:36:04;20.17;;;8.20;;
8596;SDS011;4336;49.310;8.646;2024-02-21T01:38:34;25.83;;;9.33;;
8596;SDS011;4336;49.310;8.646;2024-02-21T01:41:00;19.20;;;8.80;;
8596;SDS011;4336;49.310;8.646;2024-02-21T01:43:26;21.37;;;9.07;;
8596;SDS011;4336;49.310;8.646;2024-02-21T01:45:53;18.50;;;8.53;;
8596;SDS011;4336;49.310;8.646;2024-02-21T01:48:19;16.67;;;8.63;;
8596;SDS011;4336;49.310;8.646;2024-02-21T01:50:46;22.03;;;9.17;;
8596;SDS011;4336;49.310;8.646;2024-02-21T01:53:13;17.47;;;8.20;;
8596;SDS011;4336;49.310;8.646;2024-02-21T01:55:47;19.60;;;8.33;;
8596;SDS011;4336;49.310;8.646;2024-02-21T01:58:14;17.50;;;7.73;;
8596;SDS011;4336;49.310;8.646;2024-02-21T02:00:41;16.77;;;7.93;;
8596;SDS011;4336;49.310;8.646;2024-02-21T02:03:10;23.53;;;8.70;;
8596;SDS011;4336;49.310;8.646;2024-02-21T02:08:12;13.87;;;7.70;;
8596;SDS011;4336;49.310;8.646;2024-02-21T02:10:38;19.70;;;8.73;;
8596;SDS011;4336;49.310;8.646;2024-02-21T02:13:04;19.57;;;8.97;;
8596;SDS011;4336;49.310;8.646;2024-02-21T02:15:37;20.37;;;8.90;;
8596;SDS011;4336;49.310;8.646;2024-02-21T02:18:04;18.77;;;9.20;;
8596;SDS011;4336;49.310;8.646;2024-02-21T02:20:30;20.67;;;8.90;;
8596;SDS011;4336;49.310;8.646;2024-02-21T02:22:57;21.67;;;9.07;;
8596;SDS011;4336;49.310;8.646;2024-02-21T02:25:25;21.00;;;7.53;;
8596;SDS011;4336;49.310;8.646;2024-02-21T02:27:52;21.67;;;8.33;;
8596;SDS011;4336;49.310;8.646;2024-02-21T02:30:18;20.20;;;9.00;;
8596;SDS011;4336;49.310;8.646;2024-02-21T02:32:45;19.10;;;8.87;;
8596;SDS011;4336;49.310;8.646;2024-02-21T02:35:11;18.63;;;8.77;;
8596;SDS011;4336;49.310;8.646;2024-02-21T02:37:37;19.77;;;8.47;;
8596;SDS011;4336;49.310;8.646;2024-02-21T02:40:05;19.20;;;8.37;;
8596;SDS011;4336;49.310;8.646;2024-02-21T02:42:31;20.63;;;8.43;;
8596;SDS011;4336;49.310;8.646;2024-02-21T02:44:57;19.00;;;8.33;;
8596;SDS011;4336;49.310;8.646;2024-02-21T02:47:23;18.07;;;8.33;;
8596;SDS011;4336;49.310;8.646;2024-02-21T02:49:50;13.43;;;7.83;;
8596;SDS011;4336;49.310;8.646;2024-02-21T02:52:17;14.57;;;7.47;;
8596;SDS011;4336;49.310;8.646;2024-02-21T02:54:43;16.97;;;8.00;;
8596;SDS011;4336;49.310;8.646;2024-02-21T02:57:09;18.27;;;8.10;;
8596;SDS011;4336;49.310;8.646;2024-02-21T02:59:36;19.63;;;8.23;;
8596;SDS011;4336;49.310;8.646;2024-02-21T03:02:02;19.00;;;7.73;;
8596;SDS011;4336;49.310;8.646;2024-02-21T03:04:28;16.33;;;7.77;;
8596;SDS011;4336;49.310;8.646;2024-02-21T03:06:54;18.00;;;8.30;;
8596;SDS011;4336;49.310;8.646;2024-02-21T03:09:20;16.13;;;8.17;;
8596;SDS011;4336;49.310;8.646;2024-02-21T03:11:46;16.67;;;8.83;;
8596;SDS011;4336;49.310;8.646;2024-02-21T03:14:12;13.87;;;7.53;;
8596;SDS011;4336;49.310;8.646;2024-02-21T03:16:39;18.10;;;7.87;;
8596;SDS011;4336;49.310;8.646;2024-02-21T03:19:05;19.80;;;7.23;;
8596;SDS011;4336;49.310;8.646;2024-02-21T03:21:31;16.77;;;7.97;;
8596;SDS011;4336;49.310;8.646;2024-02-21T03:23:57;18.57;;;7.63;;
8596;SDS011;4336;49.310;8.646;2024-02-21T03:26:23;15.70;;;7.63;;
8596;SDS011;4336;49.310;8.646;2024-02-21T03:28:49;20.33;;;8.53;;
8596;SDS011;4336;49.310;8.646;2024-02-21T03:31:15;16.37;;;7.77;;
8596;SDS011;4336;49.310;8.646;2024-02-21T03:33:42;19.17;;;8.10;;
8596;SDS011;4336;49.310;8.646;2024-02-21T03:36:15;18.93;;;8.00;;
8596;SDS011;4336;49.310;8.646;2024-02-21T03:38:41;18.23;;;7.70;;
8596;SDS011;4336;49.310;8.646;2024-02-21T03:41:07;19.33;;;8.03;;
8596;SDS011;4336;49.310;8.646;2024-02-21T03:43:33;24.30;;;9.10;;
8596;SDS011;4336;49.310;8.646;2024-02-21T03:46:04;15.50;;;7.93;;
8596;SDS011;4336;49.310;8.646;2024-02-21T03:48:30;18.70;;;7.97;;
8596;SDS011;4336;49.310;8.646;2024-02-21T03:50:56;19.73;;;7.30;;
8596;SDS011;4336;49.310;8.646;2024-02-21T03:53:22;19.53;;;7.93;;
8596;SDS011;4336;49.310;8.646;2024-02-21T03:55:48;14.53;;;7.37;;
8596;SDS011;4336;49.310;8.646;2024-02-21T03:58:14;14.17;;;6.97;;
8596;SDS011;4336;49.310;8.646;2024-02-21T04:00:40;17.43;;;7.40;;
8596;SDS011;4336;49.310;8.646;2024-02-21T04:03:06;15.27;;;6.93;;
8596;SDS011;4336;49.310;8.646;2024-02-21T04:05:33;18.60;;;7.57;;
8596;SDS011;4336;49.310;8.646;2024-02-21T04:07:59;15.10;;;6.40;;
8596;SDS011;4336;49.310;8.646;2024-02-21T04:10:25;20.23;;;7.07;;
8596;SDS011;4336;49.310;8.646;2024-02-21T04:12:51;13.83;;;6.60;;
8596;SDS011;4336;49.310;8.646;2024-02-21T04:15:17;18.73;;;7.03;;
8596;SDS011;4336;49.310;8.646;2024-02-21T04:17:44;18.23;;;6.97;;
8596;SDS011;4336;49.310;8.646;2024-02-21T04:20:13;16.73;;;6.93;;
8596;SDS011;4336;49.310;8.646;2024-02-21T04:22:40;20.00;;;7.27;;
8596;SDS011;4336;49.310;8.646;2024-02-21T04:25:06;19.17;;;7.27;;
8596;SDS011;4336;49.310;8.646;2024-02-21T04:27:36;14.83;;;6.90;;
8596;SDS011;4336;49.310;8.646;2024-02-21T04:30:02;20.50;;;7.63;;
8596;SDS011;4336;49.310;8.646;2024-02-21T04:32:29;19.83;;;7.23;;
8596;SDS011;4336;49.310;8.646;2024-02-21T04:34:55;13.60;;;7.10;;
8596;SDS011;4336;49.310;8.646;2024-02-21T04:37:21;18.47;;;6.63;;
8596;SDS011;4336;49.310;8.646;2024-02-21T04:39:48;14.20;;;7.00;;
8596;SDS011;4336;49.310;8.646;2024-02-21T04:42:14;20.30;;;7.43;;
8596;SDS011;4336;49.310;8.646;2024-02-21T04:44:40;14.37;;;7.27;;
8596;SDS011;4336;49.310;8.646;2024-02-21T04:47:07;14.37;;;7.47;;
8596;SDS011;4336;49.310;8.646;2024-02-21T04:49:33;17.17;;;7.13;;
8596;SDS011;4336;49.310;8.646;2024-02-21T04:52:00;17.17;;;7.47;;
8596;SDS011;4336;49.310;8.646;2024-02-21T04:54:26;16.87;;;7.53;;
8596;SDS011;4336;49.310;8.646;2024-02-21T04:56:52;14.13;;;7.10;;
8596;SDS011;4336;49.310;8.646;2024-02-21T04:59:18;19.53;;;7.67;;
8596;SDS011;4336;49.310;8.646;2024-02-21T05:01:44;14.20;;;7.10;;
8596;SDS011;4336;49.310;8.646;2024-02-21T05:04:10;17.97;;;7.37;;
8596;SDS011;4336;49.310;8.646;2024-02-21T05:06:40;19.40;;;7.10;;
8596;SDS011;4336;49.310;8.646;2024-02-21T05:09:07;16.17;;;7.10;;
8596;SDS011;4336;49.310;8.646;2024-02-21T05:11:36;19.67;;;7.80;;
8596;SDS011;4336;49.310;8.646;2024-02-21T05:14:05;15.33;;;7.77;;
8596;SDS011;4336;49.310;8.646;2024-02-21T05:16:32;14.97;;;7.97;;
8596;SDS011;4336;49.310;8.646;2024-02-21T05:18:58;16.37;;;7.70;;
8596;SDS011;4336;49.310;8.646;2024-02-21T05:21:24;19.43;;;8.77;;
8596;SDS011;4336;49.310;8.646;2024-02-21T05:23:51;17.90;;;7.90;;
8596;SDS011;4336;49.310;8.646;2024-02-21T05:26:20;19.27;;;8.33;;
8596;SDS011;4336;49.310;8.646;2024-02-21T05:28:48;24.83;;;9.70;;
8596;SDS011;4336;49.310;8.646;2024-02-21T05:31:15;29.03;;;10.90;;
8596;SDS011;4336;49.310;8.646;2024-02-21T05:33:42;21.10;;;10.97;;
8596;SDS011;4336;49.310;8.646;2024-02-21T05:36:08;25.50;;;11.30;;
8596;SDS011;4336;49.310;8.646;2024-02-21T05:38:35;17.03;;;9.50;;
8596;SDS011;4336;49.310;8.646;2024-02-21T05:41:01;14.53;;;8.03;;
8596;SDS011;4336;49.310;8.646;2024-02-21T05:43:28;16.27;;;7.97;;
8596;SDS011;4336;49.310;8.646;2024-02-21T05:45:54;17.53;;;7.90;;
8596;SDS011;4336;49.310;8.646;2024-02-21T05:48:20;17.80;;;7.83;;
8596;SDS011;4336;49.310;8.646;2024-02-21T05:50:46;17.93;;;8.37;;
8596;SDS011;4336;49.310;8.646;2024-02-21T05:53:12;17.47;;;7.40;;
8596;SDS011;4336;49.310;8.646;2024-02-21T05:55:38;16.83;;;7.50;;
8596;SDS011;4336;49.310;8.646;2024-02-21T05:58:05;19.70;;;7.37;;
8596;SDS011;4336;49.310;8.646;2024-02-21T06:00:31;12.40;;;8.07;;
8596;SDS011;4336;49.310;8.646;2024-02-21T06:02:57;15.83;;;7.23;;
8596;SDS011;4336;49.310;8.646;2024-02-21T06:05:23;15.57;;;8.20;;
8596;SDS011;4336;49.310;8.646;2024-02-21T06:07:50;17.33;;;8.03;;
8596;SDS011;4336;49.310;8.646;2024-02-21T06:10:16;14.30;;;8.13;;
8596;SDS011;4336;49.310;8.646;2024-02-21T06:12:42;16.87;;;7.73;;
8596;SDS011;4336;49.310;8.646;2024-02-21T06:15:08;19.00;;;8.20;;
8596;SDS011;4336;49.310;8.646;2024-02-21T06:17:35;20.00;;;7.97;;
8596;SDS011;4336;49.310;8.646;2024-02-21T06:20:01;17.03;;;7.53;;
8596;SDS011;4336;49.310;8.646;2024-02-21T06:22:27;12.50;;;7.63;;
8596;SDS011;4336;49.310;8.646;2024-02-21T06:24:53;20.57;;;8.87;;
8596;SDS011;4336;49.310;8.646;2024-02-21T06:27:19;18.30;;;9.73;;
8596;SDS011;4336;49.310;8.646;2024-02-21T06:29:45;19.97;;;12.30;;
8596;SDS011;4336;49.310;8.646;2024-02-21T06:32:12;18.43;;;8.63;;
8596;SDS011;4336;49.310;8.646;2024-02-21T06:34:38;16.13;;;9.67;;
8596;SDS011;4336;49.310;8.646;2024-02-21T06:37:04;13.53;;;9.67;;
8596;SDS011;4336;49.310;8.646;2024-02-21T06:39:30;16.33;;;8.40;;
8596;SDS011;4336;49.310;8.646;2024-02-21T06:41:56;23.57;;;9.90;;
8596;SDS011;4336;49.310;8.646;2024-02-21T06:44:22;19.90;;;9.70;;
8596;SDS011;4336;49.310;8.646;2024-02-21T06:46:48;23.97;;;11.20;;
8596;SDS011;4336;49.310;8.646;2024-02-21T06:49:14;21.77;;;11.10;;
8596;SDS011;4336;49.310;8.646;2024-02-21T06:51:44;19.03;;;12.67;;
8596;SDS011;4336;49.310;8.646;2024-02-21T06:54:10;21.50;;;9.80;;
8596;SDS011;4336;49.310;8.646;2024-02-21T06:56:36;12.53;;;8.43;;
8596;SDS011;4336;49.310;8.646;2024-02-21T06:59:03;14.90;;;7.97;;
8596;SDS011;4336;49.310;8.646;2024-02-21T07:01:29;18.33;;;8.87;;
8596;SDS011;4336;49.310;8.646;2024-02-21T07:03:56;18.37;;;8.03;;
8596;SDS011;4336;49.310;8.646;2024-02-21T07:06:22;16.73;;;8.30;;
8596;SDS011;4336;49.310;8.646;2024-02-21T07:08:48;16.50;;;7.50;;
8596;SDS011;4336;49.310;8.646;2024-02-21T07:11:14;13.80;;;7.40;;
8596;SDS011;4336;49.310;8.646;2024-02-21T07:13:41;12.13;;;8.10;;
8596;SDS011;4336;49.310;8.646;2024-02-21T07:16:07;23.77;;;11.90;;
8596;SDS011;4336;49.310;8.646;2024-02-21T07:18:33;15.57;;;7.33;;
8596;SDS011;4336;49.310;8.646;2024-02-21T07:20:59;16.70;;;8.00;;
8596;SDS011;4336;49.310;8.646;2024-02-21T07:23:25;18.47;;;7.80;;
8596;SDS011;4336;49.310;8.646;2024-02-21T07:25:52;12.47;;;7.57;;
8596;SDS011;4336;49.310;8.646;2024-02-21T07:28:18;14.80;;;7.80;;
8596;SDS011;4336;49.310;8.646;2024-02-21T07:30:44;16.87;;;8.17;;
8596;SDS011;4336;49.310;8.646;2024-02-21T07:33:10;19.57;;;8.10;;
8596;SDS011;4336;49.310;8.646;2024-02-21T07:35:36;17.30;;;8.63;;
8596;SDS011;4336;49.310;8.646;2024-02-21T07:38:03;23.00;;;8.87;;
8596;SDS011;4336;49.310;8.646;2024-02-21T07:40:30;23.00;;;8.83;;
8596;SDS011;4336;49.310;8.646;2024-02-21T07:42:56;17.83;;;7.43;;
8596;SDS011;4336;49.310;8.646;2024-02-21T07:45:22;18.03;;;9.20;;
8596;SDS011;4336;49.310;8.646;2024-02-21T07:47:49;16.10;;;8.37;;
8596;SDS011;4336;49.310;8.646;2024-02-21T07:50:16;17.77;;;8.17;;
8596;SDS011;4336;49.310;8.646;2024-02-21T07:52:42;15.83;;;8.17;;
8596;SDS011;4336;49.310;8.646;2024-02-21T07:55:11;17.90;;;8.37;;
8596;SDS011;4336;49.310;8.646;2024-02-21T07:57:38;24.00;;;11.90;;
8596;SDS011;4336;49.310;8.646;2024-02-21T08:00:04;19.27;;;8.53;;
8596;SDS011;4336;49.310;8.646;2024-02-21T08:02:37;16.43;;;8.30;;
8596;SDS011;4336;49.310;8.646;2024-02-21T08:05:03;30.40;;;18.40;;
8596;SDS011;4336;49.310;8.646;2024-02-21T08:07:30;15.13;;;6.87;;
8596;SDS011;4336;49.310;8.646;2024-02-21T08:09:56;15.20;;;7.00;;
8596;SDS011;4336;49.310;8.646;2024-02-21T08:12:22;15.60;;;7.07;;
8596;SDS011;4336;49.310;8.646;2024-02-21T08:14:48;19.53;;;7.90;;
8596;SDS011;4336;49.310;8.646;2024-02-21T08:17:14;15.93;;;6.80;;
8596;SDS011;4336;49.310;8.646;2024-02-21T08:19:41;16.83;;;6.77;;
8596;SDS011;4336;49.310;8.646;2024-02-21T08:22:07;19.47;;;7.70;;
8596;SDS011;4336;49.310;8.646;2024-02-21T08:24:33;17.53;;;8.80;;
8596;SDS011;4336;49.310;8.646;2024-02-21T08:26:59;15.53;;;7.57;;
8596;SDS011;4336;49.310;8.646;2024-02-21T08:29:25;17.90;;;7.30;;
8596;SDS011;4336;49.310;8.646;2024-02-21T08:31:52;15.30;;;7.20;;
8596;SDS011;4336;49.310;8.646;2024-02-21T08:34:19;22.10;;;12.57;;
8596;SDS011;4336;49.310;8.646;2024-02-21T08:36:45;28.00;;;13.13;;
8596;SDS011;4336;49.310;8.646;2024-02-21T08:39:11;19.53;;;10.00;;
8596;SDS011;4336;49.310;8.646;2024-02-21T08:41:41;28.50;;;13.47;;
8596;SDS011;4336;49.310;8.646;2024-02-21T08:44:08;15.97;;;7.60;;
8596;SDS011;4336;49.310;8.646;2024-02-21T08:46:34;28.07;;;13.80;;
8596;SDS011;4336;49.310;8.646;2024-02-21T08:49:04;28.13;;;12.33;;
8596;SDS011;4336;49.310;8.646;2024-02-21T08:51:30;25.33;;;12.13;;
8596;SDS011;4336;49.310;8.646;2024-02-21T08:53:56;22.23;;;11.17;;
8596;SDS011;4336;49.310;8.646;2024-02-21T08:56:23;15.03;;;6.97;;
8596;SDS011;4336;49.310;8.646;2024-02-21T08:58:49;15.83;;;7.17;;
8596;SDS011;4336;49.310;8.646;2024-02-21T09:01:15;14.10;;;7.73;;
8596;SDS011;4336;49.310;8.646;2024-02-21T09:03:41;18.93;;;8.67;;
8596;SDS011;4336;49.310;8.646;2024-02-21T09:06:10;17.90;;;7.73;;
8596;SDS011;4336;49.310;8.646;2024-02-21T09:08:38;19.77;;;9.03;;
8596;SDS011;4336;49.310;8.646;2024-02-21T09:11:05;22.17;;;10.07;;
8596;SDS011;4336;49.310;8.646;2024-02-21T09:13:35;14.37;;;7.13;;
8596;SDS011;4336;49.310;8.646;2024-02-21T09:16:01;14.10;;;7.07;;
8596;SDS011;4336;49.310;8.646;2024-02-21T09:18:28;24.23;;;11.40;;
8596;SDS011;4336;49.310;8.646;2024-02-21T09:20:54;25.80;;;11.83;;
8596;SDS011;4336;49.310;8.646;2024-02-21T09:23:23;17.13;;;8.60;;
8596;SDS011;4336;49.310;8.646;2024-02-21T09:25:49;14.27;;;7.60;;
8596;SDS011;4336;49.310;8.646;2024-02-21T09:28:15;16.23;;;7.47;;
8596;SDS011;4336;49.310;8.646;2024-02-21T09:30:41;14.77;;;6.33;;
8596;SDS011;4336;49.310;8.646;2024-02-21T09:33:06;16.67;;;6.03;;
8596;SDS011;4336;49.310;8.646;2024-02-21T09:35:32;12.43;;;5.80;;
8596;SDS011;4336;49.310;8.646;2024-02-21T09:37:58;9.93;;;5.80;;
8596;SDS011;4336;49.310;8.646;2024-02-21T09:40:24;13.40;;;5.97;;
8596;SDS011;4336;49.310;8.646;2024-02-21T09:42:55;21.23;;;11.17;;
8596;SDS011;4336;49.310;8.646;2024-02-21T09:45:30;11.13;;;5.83;;
8596;SDS011;4336;49.310;8.646;2024-02-21T09:50:41;10.10;;;5.07;;
8596;SDS011;4336;49.310;8.646;2024-02-21T09:53:14;11.67;;;5.77;;
8596;SDS011;4336;49.310;8.646;2024-02-21T09:55:39;10.80;;;5.90;;
8596;SDS011;4336;49.310;8.646;2024-02-21T09:58:07;21.93;;;5.57;;
8596;SDS011;4336;49.310;8.646;2024-02-21T10:00:35;12.23;;;5.77;;
8596;SDS011;4336;49.310;8.646;2024-02-21T10:03:01;11.43;;;5.80;;
8596;SDS011;4336;49.310;8.646;2024-02-21T10:05:33;13.50;;;5.77;;
8596;SDS011;4336;49.310;8.646;2024-02-21T10:08:02;8.23;;;5.20;;
8596;SDS011;4336;49.310;8.646;2024-02-21T10:10:29;15.40;;;5.43;;
8596;SDS011;4336;49.310;8.646;2024-02-21T10:12:55;11.83;;;4.60;;
8596;SDS011;4336;49.310;8.646;2024-02-21T10:15:22;10.80;;;5.03;;
8596;SDS011;4336;49.310;8.646;2024-02-21T10:17:59;8.90;;;4.93;;
8596;SDS011;4336;49.310;8.646;2024-02-21T10:20:26;11.47;;;5.13;;
8596;SDS011;4336;49.310;8.646;2024-02-21T10:23:02;9.27;;;4.60;;
8596;SDS011;4336;49.310;8.646;2024-02-21T10:25:33;9.97;;;4.90;;
8596;SDS011;4336;49.310;8.646;2024-02-21T10:27:59;10.30;;;4.53;;
8596;SDS011;4336;49.310;8.646;2024-02-21T10:30:25;11.30;;;4.83;;
8596;SDS011;4336;49.310;8.646;2024-02-21T10:32:54;14.80;;;6.10;;
8596;SDS011;4336;49.310;8.646;2024-02-21T10:35:30;10.37;;;4.53;;
8596;SDS011;4336;49.310;8.646;2024-02-21T10:37:57;13.07;;;4.97;;
8596;SDS011;4336;49.310;8.646;2024-02-21T10:40:27;9.10;;;5.00;;
8596;SDS011;4336;49.310;8.646;2024-02-21T10:42:57;10.40;;;4.93;;
8596;SDS011;4336;49.310;8.646;2024-02-21T10:45:30;11.00;;;4.77;;
8596;SDS011;4336;49.310;8.646;2024-02-21T10:48:01;13.90;;;4.90;;
8596;SDS011;4336;49.310;8.646;2024-02-21T10:56:35;12.60;;;4.90;;
8596;SDS011;4336;49.310;8.646;2024-02-21T10:59:07;10.93;;;5.03;;
8596;SDS011;4336;49.310;8.646;2024-02-21T11:01:33;10.33;;;5.30;;
8596;SDS011;4336;49.310;8.646;2024-02-21T11:04:02;8.50;;;4.60;;
8596;SDS011;4336;49.310;8.646;2024-02-21T11:06:36;10.13;;;4.60;;
8596;SDS011;4336;49.310;8.646;2024-02-21T11:09:04;9.93;;;5.07;;
8596;SDS011;4336;49.310;8.646;2024-02-21T11:11:34;10.07;;;5.20;;
8596;SDS011;4336;49.310;8.646;2024-02-21T11:16:35;12.13;;;4.50;;
8596;SDS011;4336;49.310;8.646;2024-02-21T11:19:05;9.77;;;4.43;;
8596;SDS011;4336;49.310;8.646;2024-02-21T11:21:35;8.17;;;4.90;;
8596;SDS011;4336;49.310;8.646;2024-02-21T11:24:02;11.43;;;5.30;;
8596;SDS011;4336;49.310;8.646;2024-02-21T11:26:29;10.17;;;5.40;;
8596;SDS011;4336;49.310;8.646;2024-02-21T11:28:56;12.10;;;5.17;;
8596;SDS011;4336;49.310;8.646;2024-02-21T11:31:22;11.57;;;5.60;;
8596;SDS011;4336;49.310;8.646;2024-02-21T11:33:48;14.40;;;5.07;;
8596;SDS011;4336;49.310;8.646;2024-02-21T11:36:24;11.87;;;5.47;;
8596;SDS011;4336;49.310;8.646;2024-02-21T11:38:51;10.60;;;5.70;;
8596;SDS011;4336;49.310;8.646;2024-02-21T11:41:17;12.43;;;4.93;;
8596;SDS011;4336;49.310;8.646;2024-02-21T11:43:43;12.60;;;4.77;;
8596;SDS011;4336;49.310;8.646;2024-02-21T11:46:09;7.87;;;4.87;;
8596;SDS011;4336;49.310;8.646;2024-02-21T11:48:34;12.00;;;4.43;;
8596;SDS011;4336;49.310;8.646;2024-02-21T11:51:00;9.93;;;5.13;;
8596;SDS011;4336;49.310;8.646;2024-02-21T11:53:26;9.10;;;5.40;;
8596;SDS011;4336;49.310;8.646;2024-02-21T11:55:55;10.23;;;5.83;;
8596;SDS011;4336;49.310;8.646;2024-02-21T11:58:22;7.20;;;4.73;;
8596;SDS011;4336;49.310;8.646;2024-02-21T12:00:48;8.17;;;4.67;;
8596;SDS011;4336;49.310;8.646;2024-02-21T12:03:14;9.67;;;4.33;;
8596;SDS011;4336;49.310;8.646;2024-02-21T12:05:40;11.77;;;5.40;;
8596;SDS011;4336;49.310;8.646;2024-02-21T12:08:06;19.00;;;7.63;;
8596;SDS011;4336;49.310;8.646;2024-02-21T12:10:33;7.93;;;4.27;;
8596;SDS011;4336;49.310;8.646;2024-02-21T12:13:07;14.90;;;6.63;;
8596;SDS011;4336;49.310;8.646;2024-02-21T12:15:33;10.50;;;5.30;;
8596;SDS011;4336;49.310;8.646;2024-02-21T12:17:59;9.30;;;4.67;;
8596;SDS011;4336;49.310;8.646;2024-02-21T12:20:25;8.27;;;4.70;;
8596;SDS011;4336;49.310;8.646;2024-02-21T12:22:52;18.37;;;7.67;;
8596;SDS011;4336;49.310;8.646;2024-02-21T12:25:20;10.77;;;5.13;;
8596;SDS011;4336;49.310;8.646;2024-02-21T12:27:52;8.30;;;4.13;;
8596;SDS011;4336;49.310;8.646;2024-02-21T12:30:19;6.83;;;4.10;;
8596;SDS011;4336;49.310;8.646;2024-02-21T12:32:46;10.13;;;4.57;;
8596;SDS011;4336;49.310;8.646;2024-02-21T12:35:13;15.67;;;6.50;;
8596;SDS011;4336;49.310;8.646;2024-02-21T12:37:39;10.40;;;4.37;;
8596;SDS011;4336;49.310;8.646;2024-02-21T12:40:05;8.90;;;5.20;;
8596;SDS011;4336;49.310;8.646;2024-02-21T12:42:33;7.23;;;4.70;;
8596;SDS011;4336;49.310;8.646;2024-02-21T12:44:59;9.27;;;4.50;;
8596;SDS011;4336;49.310;8.646;2024-02-21T12:47:25;8.23;;;4.40;;
8596;SDS011;4336;49.310;8.646;2024-02-21T12:49:54;6.57;;;4.10;;
8596;SDS011;4336;49.310;8.646;2024-02-21T12:52:21;8.73;;;4.03;;
8596;SDS011;4336;49.310;8.646;2024-02-21T12:54:46;9.97;;;5.27;;
8596;SDS011;4336;49.310;8.646;2024-02-21T13:00:22;10.67;;;4.73;;
8596;SDS011;4336;49.310;8.646;2024-02-21T13:02:51;16.63;;;4.50;;
8596;SDS011;4336;49.310;8.646;2024-02-21T13:05:17;10.37;;;3.70;;
8596;SDS011;4336;49.310;8.646;2024-02-21T13:07:43;12.33;;;5.20;;
8596;SDS011;4336;49.310;8.646;2024-02-21T13:10:09;10.57;;;5.47;;
8596;SDS011;4336;49.310;8.646;2024-02-21T13:12:35;12.87;;;5.47;;
8596;SDS011;4336;49.310;8.646;2024-02-21T13:15:00;16.33;;;4.90;;
8596;SDS011;4336;49.310;8.646;2024-02-21T13:17:26;11.80;;;5.03;;
8596;SDS011;4336;49.310;8.646;2024-02-21T13:19:55;14.33;;;5.83;;
8596;SDS011;4336;49.310;8.646;2024-02-21T13:22:21;8.70;;;4.40;;
8596;SDS011;4336;49.310;8.646;2024-02-21T13:24:51;16.87;;;5.10;;
8596;SDS011;4336;49.310;8.646;2024-02-21T13:27:16;9.43;;;5.20;;
8596;SDS011;4336;49.310;8.646;2024-02-21T13:29:42;10.77;;;4.80;;
8596;SDS011;4336;49.310;8.646;2024-02-21T13:32:08;11.13;;;4.80;;
8596;SDS011;4336;49.310;8.646;2024-02-21T13:34:34;18.63;;;10.53;;
8596;SDS011;4336;49.310;8.646;2024-02-21T13:36:59;11.70;;;4.80;;
8596;SDS011;4336;49.310;8.646;2024-02-21T13:39:25;8.60;;;4.83;;
8596;SDS011;4336;49.310;8.646;2024-02-21T13:41:51;9.43;;;4.60;;
8596;SDS011;4336;49.310;8.646;2024-02-21T13:44:17;7.00;;;4.53;;
8596;SDS011;4336;49.310;8.646;2024-02-21T13:46:43;8.83;;;4.07;;
8596;SDS011;4336;49.310;8.646;2024-02-21T13:49:08;9.67;;;4.20;;
8596;SDS011;4336;49.310;8.646;2024-02-21T13:51:34;11.00;;;4.53;;
8596;SDS011;4336;49.310;8.646;2024-02-21T13:54:03;11.97;;;4.37;;
8596;SDS011;4336;49.310;8.646;2024-02-21T13:56:30;14.07;;;4.70;;
8596;SDS011;4336;49.310;8.646;2024-02-21T13:58:58;8.00;;;4.00;;
8596;SDS011;4336;49.310;8.646;2024-02-21T14:01:25;9.33;;;4.23;;
8596;SDS011;4336;49.310;8.646;2024-02-21T14:03:53;11.30;;;4.13;;
8596;SDS011;4336;49.310;8.646;2024-02-21T14:06:18;7.57;;;4.10;;
8596;SDS011;4336;49.310;8.646;2024-02-21T14:08:44;11.33;;;4.87;;
8596;SDS011;4336;49.310;8.646;2024-02-21T14:11:10;11.43;;;4.77;;
8596;SDS011;4336;49.310;8.646;2024-02-21T14:13:36;9.00;;;4.23;;
8596;SDS011;4336;49.310;8.646;2024-02-21T14:16:02;8.93;;;3.90;;
8596;SDS011;4336;49.310;8.646;2024-02-21T14:18:28;6.23;;;3.60;;
8596;SDS011;4336;49.310;8.646;2024-02-21T14:20:54;6.70;;;3.87;;
8596;SDS011;4336;49.310;8.646;2024-02-21T14:23:20;9.73;;;4.60;;
8596;SDS011;4336;49.310;8.646;2024-02-21T14:25:46;11.50;;;4.50;;
8596;SDS011;4336;49.310;8.646;2024-02-21T14:28:12;7.67;;;3.93;;
8596;SDS011;4336;49.310;8.646;2024-02-21T14:30:38;9.23;;;4.70;;
8596;SDS011;4336;49.310;8.646;2024-02-21T14:33:06;13.47;;;5.60;;
8596;SDS011;4336;49.310;8.646;2024-02-21T14:35:33;9.83;;;4.27;;
8596;SDS011;4336;49.310;8.646;2024-02-21T14:37:59;7.23;;;3.93;;
8596;SDS011;4336;49.310;8.646;2024-02-21T14:40:26;12.63;;;4.20;;
8596;SDS011;4336;49.310;8.646;2024-02-21T14:42:52;10.37;;;4.20;;
8596;SDS011;4336;49.310;8.646;2024-02-21T14:45:18;10.17;;;4.40;;
8596;SDS011;4336;49.310;8.646;2024-02-21T14:47:44;8.90;;;4.20;;
8596;SDS011;4336;49.310;8.646;2024-02-21T14:50:09;7.67;;;4.13;;
8596;SDS011;4336;49.310;8.646;2024-02-21T14:52:36;8.87;;;4.10;;
8596;SDS011;4336;49.310;8.646;2024-02-21T14:55:01;9.03;;;3.97;;
8596;SDS011;4336;49.310;8.646;2024-02-21T14:57:28;5.63;;;3.67;;
8596;SDS011;4336;49.310;8.646;2024-02-21T14:59:53;9.40;;;4.30;;
8596;SDS011;4336;49.310;8.646;2024-02-21T15:02:24;11.93;;;4.07;;
8596;SDS011;4336;49.310;8.646;2024-02-21T15:04:50;7.80;;;4.00;;
8596;SDS011;4336;49.310;8.646;2024-02-21T15:07:16;8.17;;;4.00;;
8596;SDS011;4336;49.310;8.646;2024-02-21T15:09:42;11.97;;;4.07;;
8596;SDS011;4336;49.310;8.646;2024-02-21T15:12:09;6.60;;;3.67;;
8596;SDS011;4336;49.310;8.646;2024-02-21T15:14:34;10.93;;;4.83;;
8596;SDS011;4336;49.310;8.646;2024-02-21T15:17:00;7.40;;;3.73;;